Cambridge, MA (02238)

5:28 PM EDT on September 01, 2014 (GMT -0400)
Agassiz | Change Station
CLOSE
Current Station
Personal Weather Station
Location: Cambridge, MA
Elevation: 46 ft
Nearby Weather Stations

Elev 46 ft 42.38 °N, 71.11 °W | Updated 7 minutes ago

Mostly Cloudy
Mostly Cloudy
89.1 °F
Feels Like 96 °F
N
2.2
Wind Variable Wind from West

Today
High -- | Low -- °F
--% Chance of Precip.
Yesterday
High -- | Low -- °F
Precip. -- in
6:09 AM 7:18 PM
Waxing Crescent, 44% visible
Pressure 29.91 in
Visibility 10.0 miles
Clouds Few 4500 ft
Scattered Clouds 7000 ft
Mostly Cloudy 22000 ft
Heat Index 96 °F
Dew Point 71 °F
Humidity 56%
Rainfall 0.00 in
Snow Depth Not available.
UV 1 out of 12
Pollen 6.30 out of 12
Ozone Good
PM2.5 Good
Flu Activity Not available.
METAR KBOS 012054Z 12007KT 10SM FEW045 SCT070 BKN220 26/21 A2991 RMK AO2 SLP129 T02610211 56008

More Conditions Fewer Conditions

Pressure 29.91 in
Visibility 10.0 miles
Clouds Few 4500 ft
Scattered Clouds 7000 ft
Mostly Cloudy 22000 ft
Heat Index 96 °F
Dew Point 71 °F
Humidity 56%
Rainfall 0.00 in
Snow Depth Not available.
UV 1 out of 12
Pollen 6.30 out of 12
Ozone Good
PM2.5 Good
Flu Activity Not available.
METAR KBOS 012054Z 12007KT 10SM FEW045 SCT070 BKN220 26/21 A2991 RMK AO2 SLP129 T02610211 56008

More Conditions Fewer Conditions

10-Day Weather Forecast

Almanac

Astronomy

Sep. 01, 2014 Rise Set
Actual Time 6:09 AM EDT 7:18 PM EDT
Civil Twilight 5:40 AM EDT 7:47 PM EDT
Nautical Twilight 5:06 AM EDT 8:21 PM EDT
Astronomical Twilight 4:29 AM EDT 8:57 PM EDT
Moon 1:00 PM EDT 11:09 PM EDT
Length of Visible Light 14h 06m
Length of Day
13h 08m
Tomorrow will be 2m 46s shorter.
Waxing Crescent, 44% of the Moon is Illuminated
Today
Waxing Crescent
Sep 2
First Quarter
Sep 8
Full
Sep 15
Last Quarter
Sep 24
New

Today's Extremes

State Highs State Lows

Community

WunderPhotos

Upload Photos

1,749,413 photos uploaded!

WunderBlogs® & News

Nearby

Air Quality

  Air Quality AQ Index Pollutant
Yesterday Good
PM2.5
Yesterday Good
OZONE
Current Good
PM2.5
Current Good
OZONE
Monday Moderate
PM2.5
Monday Good
OZONE
Tuesday Moderate
PM2.5
Tuesday Good
OZONE

Snow Depth

Station Depth Elevation
No new snow has been reported.

Earthquake Activity

City Distance Mag. Time & Date
No recent earthquake activity has been reported nearby.
Minimum magnitude displayed is 2.5.

Coastal Water Temperatures

Place Temperature
Boston, MA 68.0 °F
Providence, RI 73.9 °F
Fall River, MA 75.0 °F
Conimicut Light, RI 73.0 °F

Nearby Weather Stations